createdAt,value
2022-10-22T00:01:04.826Z,98746.72
2022-10-22T00:03:31.738Z,98761.69
2022-10-22T00:05:58.280Z,98760.84
2022-10-22T00:08:25.040Z,98752.97
2022-10-22T00:10:52.795Z,98753.09
2022-10-22T00:13:20.474Z,98742.34
2022-10-22T00:15:47.061Z,98737.31
2022-10-22T00:18:14.064Z,98734.47
2022-10-22T00:20:40.775Z,98732.59
2022-10-22T00:23:07.348Z,98724.34
2022-10-22T00:25:37.041Z,98729.56
2022-10-22T00:28:04.303Z,98724.16
2022-10-22T00:30:31.073Z,98732.22
2022-10-22T00:32:57.656Z,98718.44
2022-10-22T00:35:24.481Z,98708.50
2022-10-22T00:37:50.958Z,98700.81
2022-10-22T00:40:17.717Z,98705.84
2022-10-22T00:42:44.290Z,98695.03
2022-10-22T00:45:10.788Z,98696.22
2022-10-22T00:47:39.292Z,98698.56
2022-10-22T00:50:09.389Z,98708.38
2022-10-22T00:52:36.779Z,98709.22
2022-10-22T00:55:05.077Z,98708.56
2022-10-22T00:57:32.143Z,98714.78
2022-10-22T00:59:58.806Z,98709.44
2022-10-22T01:02:25.671Z,98713.44
2022-10-22T01:04:52.591Z,98706.22
2022-10-22T01:07:22.611Z,98716.00
2022-10-22T01:10:11.896Z,98713.63
2022-10-22T01:12:50.853Z,98723.53
2022-10-22T01:15:35.187Z,98718.69
2022-10-22T01:18:06.615Z,98707.38
2022-10-22T01:20:57.982Z,98718.13
2022-10-22T01:23:47.708Z,98719.84
2022-10-22T01:26:20.363Z,98716.00
2022-10-22T01:29:21.280Z,98717.66
2022-10-22T01:31:59.494Z,98720.13
2022-10-22T01:34:29.234Z,98711.56
2022-10-22T01:36:57.837Z,98714.41
2022-10-22T01:39:25.798Z,98720.47
2022-10-22T01:41:55.686Z,98720.66
2022-10-22T01:44:27.301Z,98713.75
2022-10-22T01:47:15.756Z,98721.00
2022-10-22T01:50:07.243Z,98711.06
2022-10-22T01:53:02.414Z,98707.34
2022-10-22T01:56:01.283Z,98709.53
2022-10-22T01:58:41.518Z,98701.13
2022-10-22T02:01:30.222Z,98702.31
2022-10-22T02:04:06.084Z,98701.97
2022-10-22T02:06:35.115Z,98706.66
2022-10-22T02:09:03.964Z,98713.84
2022-10-22T02:11:30.863Z,98719.94
2022-10-22T02:14:01.505Z,98726.84
2022-10-22T02:16:30.731Z,98715.09
2022-10-22T02:19:00.616Z,98703.63
2022-10-22T02:21:28.397Z,98706.31
2022-10-22T02:23:55.159Z,98708.50
2022-10-22T02:26:33.360Z,98706.19
2022-10-22T02:29:11.038Z,98700.28
2022-10-22T02:31:40.493Z,98698.53
2022-10-22T02:34:16.384Z,98701.44
2022-10-22T02:36:48.052Z,98690.72
2022-10-22T02:39:20.093Z,98688.16
2022-10-22T02:41:47.159Z,98687.84
2022-10-22T02:44:13.835Z,98695.59
2022-10-22T02:46:40.799Z,98695.25
2022-10-22T02:49:07.700Z,98685.47
2022-10-22T02:51:34.441Z,98695.09
2022-10-22T02:54:01.098Z,98683.13
2022-10-22T02:56:27.721Z,98684.66
2022-10-22T02:58:54.304Z,98685.34
2022-10-22T03:01:21.591Z,98686.50
2022-10-22T03:03:48.277Z,98692.91
2022-10-22T03:06:15.092Z,98698.63
2022-10-22T03:08:41.827Z,98694.91
2022-10-22T03:11:08.738Z,98699.63
2022-10-22T03:13:35.358Z,98696.44
2022-10-22T03:16:02.321Z,98692.75
2022-10-22T03:18:28.865Z,98694.25
2022-10-22T03:21:11.255Z,98690.03
2022-10-22T03:23:40.852Z,98704.63
2022-10-22T03:26:08.889Z,98704.28
2022-10-22T03:28:37.221Z,98704.31
2022-10-22T03:31:03.886Z,98693.09
2022-10-22T03:33:30.437Z,98694.75
2022-10-22T03:35:57.258Z,98677.94
2022-10-22T03:38:23.971Z,98677.44
2022-10-22T03:40:50.821Z,98692.56
2022-10-22T03:43:17.598Z,98691.38
2022-10-22T03:45:44.290Z,98702.97
2022-10-22T03:48:10.749Z,98693.53
2022-10-22T03:50:37.278Z,98715.91
2022-10-22T03:53:04.478Z,98709.84
2022-10-22T03:55:31.035Z,98714.09
2022-10-22T03:57:57.512Z,98704.66
2022-10-22T04:00:24.115Z,98712.53
2022-10-22T04:02:50.606Z,98714.94
2022-10-22T04:05:17.251Z,98710.88
2022-10-22T04:07:44.042Z,98708.50
2022-10-22T04:10:10.728Z,98702.31
2022-10-22T04:12:37.304Z,98698.63
2022-10-22T04:15:04.870Z,98706.88
2022-10-22T04:17:38.347Z,98696.56
2022-10-22T04:20:06.156Z,98710.53
2022-10-22T04:22:36.316Z,98713.78
2022-10-22T04:25:04.297Z,98715.94
2022-10-22T04:27:31.823Z,98716.47
2022-10-22T04:29:58.715Z,98713.78
2022-10-22T04:32:27.017Z,98715.41
2022-10-22T04:34:53.838Z,98727.53
2022-10-22T04:37:20.635Z,98725.88
2022-10-22T04:39:47.247Z,98728.88
2022-10-22T04:42:14.205Z,98723.84
2022-10-22T04:44:40.735Z,98725.16
2022-10-22T04:47:07.374Z,98743.19
2022-10-22T04:49:34.004Z,98718.81
2022-10-22T04:52:00.628Z,98718.28
2022-10-22T04:54:30.507Z,98720.66
2022-10-22T04:56:59.781Z,98722.34
2022-10-22T04:59:26.565Z,98710.22
2022-10-22T05:01:53.116Z,98715.78
2022-10-22T05:04:19.787Z,98714.63
2022-10-22T05:06:46.579Z,98703.34
2022-10-22T05:09:19.194Z,98697.31
2022-10-22T05:11:51.172Z,98709.44
2022-10-22T05:14:20.818Z,98700.50
2022-10-22T05:16:48.741Z,98704.56
2022-10-22T05:19:20.013Z,98707.72
2022-10-22T05:21:46.803Z,98707.22
2022-10-22T05:24:13.404Z,98718.19
2022-10-22T05:26:40.031Z,98716.16
2022-10-22T05:29:06.755Z,98717.34
2022-10-22T05:31:33.324Z,98724.22
2022-10-22T05:33:59.922Z,98728.94
2022-10-22T05:36:26.661Z,98738.03
2022-10-22T05:38:53.730Z,98738.47
2022-10-22T05:41:22.934Z,98738.47
2022-10-22T05:43:49.813Z,98762.22
2022-10-22T05:46:22.545Z,98764.19
2022-10-22T05:48:58.332Z,98757.78
2022-10-22T05:51:27.703Z,98758.50
2022-10-22T05:54:07.485Z,98760.69
2022-10-22T05:56:34.659Z,98763.56
2022-10-22T06:01:37.626Z,98768.22
2022-10-22T06:04:07.398Z,98784.09
2022-10-22T06:06:44.433Z,98777.69
2022-10-22T06:09:20.027Z,98776.47
2022-10-22T06:11:47.925Z,98778.69
2022-10-22T06:14:15.038Z,98788.28
2022-10-22T06:16:41.869Z,98791.44
2022-10-22T06:19:09.565Z,98796.63
2022-10-22T06:21:36.130Z,98805.69
2022-10-22T06:24:02.654Z,98798.44
2022-10-22T06:26:30.360Z,98795.41
2022-10-22T06:28:57.755Z,98799.13
2022-10-22T06:31:26.442Z,98802.47
2022-10-22T06:33:53.202Z,98797.78
2022-10-22T06:36:23.255Z,98794.09
2022-10-22T06:38:56.235Z,98809.44
2022-10-22T06:41:25.761Z,98809.75
2022-10-22T06:43:57.221Z,98805.88
2022-10-22T06:46:24.613Z,98825.56
2022-10-22T06:48:55.825Z,98833.50
2022-10-22T06:51:22.500Z,98832.28
2022-10-22T06:53:50.053Z,98835.16
2022-10-22T06:56:20.764Z,98835.81
2022-10-22T06:58:48.358Z,98835.50
2022-10-22T07:01:16.601Z,98836.53
2022-10-22T07:03:43.155Z,98836.19
2022-10-22T07:06:12.430Z,98839.91
2022-10-22T07:08:40.525Z,98842.25
2022-10-22T07:11:12.513Z,98846.47
2022-10-22T07:13:39.111Z,98852.22
2022-10-22T07:16:07.615Z,98861.09
2022-10-22T07:18:34.865Z,98869.00
2022-10-22T07:21:02.163Z,98865.34
2022-10-22T07:23:29.233Z,98860.78
2022-10-22T07:28:28.695Z,98871.91
2022-10-22T07:30:55.147Z,98870.91
2022-10-22T07:33:21.906Z,98877.97
2022-10-22T07:35:48.487Z,98882.69
2022-10-22T07:38:14.931Z,98885.72
2022-10-22T07:40:41.467Z,98888.41
2022-10-22T07:43:08.107Z,98899.66
2022-10-22T07:45:34.613Z,98895.94
2022-10-22T07:48:01.949Z,98903.38
2022-10-22T07:50:28.562Z,98906.38
2022-10-22T07:52:57.440Z,98905.41
2022-10-22T07:55:24.892Z,98914.69
2022-10-22T07:57:51.499Z,98923.44
2022-10-22T08:00:20.516Z,98912.28
2022-10-22T08:02:49.670Z,98921.91
2022-10-22T08:05:16.640Z,98923.25
2022-10-22T08:07:43.586Z,98922.91
2022-10-22T08:10:12.063Z,98934.00
2022-10-22T08:12:39.448Z,98923.06
2022-10-22T08:15:06.934Z,98929.63
2022-10-22T08:17:33.540Z,98925.94
2022-10-22T08:20:00.110Z,98921.72
2022-10-22T08:22:26.804Z,98914.81
2022-10-22T08:24:53.583Z,98916.00
2022-10-22T08:27:20.415Z,98913.00
2022-10-22T08:29:49.082Z,98904.75
2022-10-22T08:32:18.910Z,98917.88
2022-10-22T08:34:48.466Z,98902.84
2022-10-22T08:37:18.206Z,98907.38
2022-10-22T08:39:45.746Z,98908.22
2022-10-22T08:43:02.418Z,98910.91
2022-10-22T08:46:01.436Z,98908.69
2022-10-22T08:49:03.655Z,98905.31
2022-10-22T08:51:44.148Z,98896.81
2022-10-22T08:54:27.357Z,98908.00
2022-10-22T08:57:15.011Z,98916.91
2022-10-22T08:59:46.879Z,98926.47
2022-10-22T09:02:33.828Z,98922.09
2022-10-22T09:05:21.709Z,98920.38
2022-10-22T09:07:50.339Z,98923.38
2022-10-22T09:10:19.136Z,98924.09
2022-10-22T09:12:48.227Z,98928.16
2022-10-22T09:15:16.850Z,98930.31
2022-10-22T09:17:59.875Z,98930.94
2022-10-22T09:20:51.693Z,98937.97
2022-10-22T09:23:43.235Z,98931.41
2022-10-22T09:26:15.637Z,98930.53
2022-10-22T09:28:42.712Z,98938.38
2022-10-22T09:31:14.205Z,98930.25
2022-10-22T09:33:42.150Z,98929.44
2022-10-22T09:36:13.896Z,98943.72
2022-10-22T09:38:46.231Z,98940.44
2022-10-22T09:41:14.515Z,98941.28
2022-10-22T09:43:41.166Z,98944.94
2022-10-22T09:46:20.179Z,98947.19
2022-10-22T09:49:02.275Z,98963.53
2022-10-22T09:51:53.357Z,98953.16
2022-10-22T09:54:37.162Z,98966.25
2022-10-22T09:57:17.557Z,98966.44
2022-10-22T09:59:48.184Z,98971.53
2022-10-22T10:02:26.511Z,98973.31
2022-10-22T10:05:03.580Z,98974.38
2022-10-22T10:07:32.418Z,98982.69
2022-10-22T10:09:59.684Z,98985.44
2022-10-22T10:12:41.047Z,98988.28
2022-10-22T10:15:24.275Z,98990.63
2022-10-22T10:18:20.259Z,98994.34
2022-10-22T10:20:56.088Z,98979.34
2022-10-22T10:23:47.796Z,98985.97
2022-10-22T10:26:41.112Z,98997.88
2022-10-22T10:29:18.701Z,98992.59
2022-10-22T10:32:06.074Z,98983.81
2022-10-22T10:34:35.722Z,98991.78
2022-10-22T10:37:10.638Z,98991.78
2022-10-22T10:39:52.808Z,98992.59
2022-10-22T10:42:22.477Z,98996.81
2022-10-22T10:45:22.199Z,98982.97
2022-10-22T10:48:32.342Z,63530.91
2022-10-22T10:51:37.092Z,63530.91
2022-10-22T10:54:28.480Z,63530.91
2022-10-22T10:57:02.995Z,63530.91
2022-10-22T10:59:47.064Z,63530.91
2022-10-22T11:02:52.286Z,63530.91
2022-10-22T11:05:40.603Z,99017.09
2022-10-22T11:08:22.353Z,99014.19
2022-10-22T11:10:55.410Z,99021.41
2022-10-22T11:13:49.695Z,99020.84
2022-10-22T11:16:23.343Z,99013.13
2022-10-22T11:19:06.953Z,99017.84
2022-10-22T11:21:40.352Z,99011.69
2022-10-22T11:24:34.426Z,99008.88
2022-10-22T11:27:07.128Z,98996.84
2022-10-22T11:29:47.835Z,98999.69
2022-10-22T11:32:21.246Z,99000.16
2022-10-22T11:34:56.030Z,98998.84
2022-10-22T11:37:27.370Z,99002.13
2022-10-22T11:39:57.273Z,98992.03
2022-10-22T11:42:44.841Z,98991.63
2022-10-22T11:45:14.252Z,98996.00
2022-10-22T11:48:06.138Z,98988.06
2022-10-22T11:50:44.957Z,98990.66
2022-10-22T11:53:14.461Z,98991.19
2022-10-22T11:55:50.573Z,99000.72
2022-10-22T11:58:29.992Z,98997.34
2022-10-22T12:01:09.690Z,98995.28
2022-10-22T12:03:58.740Z,98990.75
2022-10-22T12:06:28.909Z,99002.00
2022-10-22T12:09:05.975Z,98994.41
2022-10-22T12:11:38.931Z,98991.28
2022-10-22T12:14:14.817Z,98992.97
2022-10-22T12:16:58.191Z,99005.81
2022-10-22T12:19:37.982Z,99009.84
2022-10-22T12:22:07.746Z,99009.84
2022-10-22T12:24:40.693Z,99010.53
2022-10-22T12:27:38.442Z,99011.78
2022-10-22T12:30:36.716Z,99011.78
2022-10-22T12:33:06.712Z,99009.16
2022-10-22T12:35:41.619Z,99003.78
2022-10-22T12:38:20.377Z,99007.06
2022-10-22T12:40:48.908Z,99009.31
2022-10-22T12:43:28.598Z,98999.44
2022-10-22T12:45:57.755Z,98995.63
2022-10-22T12:48:32.023Z,99006.44
2022-10-22T12:51:00.780Z,99007.50
2022-10-22T12:53:33.153Z,99007.28
2022-10-22T12:56:02.847Z,99003.34
2022-10-22T12:58:38.275Z,99008.53
2022-10-22T13:01:05.469Z,98999.53
2022-10-22T13:03:40.467Z,98999.09
2022-10-22T13:06:19.437Z,99007.84
2022-10-22T13:09:04.385Z,99001.75
2022-10-22T13:11:39.880Z,99009.06
2022-10-22T13:14:45.532Z,99002.81
2022-10-22T13:17:18.034Z,99004.69
2022-10-22T13:19:53.815Z,98998.19
2022-10-22T13:22:28.630Z,99005.53
2022-10-22T13:27:24.021Z,99018.28
2022-10-22T13:29:50.915Z,99011.13
2022-10-22T13:32:33.547Z,99008.16
2022-10-22T13:35:02.381Z,99018.56
2022-10-22T13:37:31.282Z,99016.75
2022-10-22T13:39:58.381Z,99025.03
2022-10-22T13:42:25.133Z,99028.13
2022-10-22T13:44:51.748Z,99029.47
2022-10-22T13:47:27.248Z,99032.94
2022-10-22T13:49:58.459Z,99033.97
2022-10-22T13:52:38.419Z,99033.53
2022-10-22T13:55:40.907Z,99040.78
2022-10-22T13:58:12.145Z,99035.84
2022-10-22T14:00:41.115Z,99034.69
2022-10-22T14:03:14.322Z,99032.03
2022-10-22T14:05:41.524Z,99030.19
2022-10-22T14:08:18.836Z,99035.34
2022-10-22T14:10:45.472Z,99034.44
2022-10-22T14:13:13.760Z,99035.09
2022-10-22T14:15:41.850Z,99035.09
2022-10-22T14:18:12.569Z,99038.63
2022-10-22T14:20:40.876Z,99034.69
2022-10-22T14:23:18.857Z,99036.94
2022-10-22T14:25:45.575Z,99037.34
2022-10-22T14:28:13.000Z,99035.63
2022-10-22T14:30:40.473Z,99036.56
2022-10-22T14:33:16.247Z,99036.16
2022-10-22T14:35:43.362Z,99043.78
2022-10-22T14:38:10.253Z,99049.22
2022-10-22T14:40:41.969Z,99046.63
2022-10-22T14:43:20.943Z,99042.19
2022-10-22T14:45:48.028Z,99046.13
2022-10-22T14:48:16.101Z,99047.84
2022-10-22T14:50:44.422Z,99049.31
2022-10-22T14:53:11.197Z,99061.31
2022-10-22T14:55:37.742Z,99056.84
2022-10-22T14:58:04.346Z,99057.34
2022-10-22T15:00:31.062Z,99060.16
2022-10-22T15:03:03.269Z,99059.78
2022-10-22T15:05:31.002Z,99055.97
2022-10-22T15:07:59.141Z,99059.72
2022-10-22T15:10:26.629Z,99063.91
2022-10-22T15:12:53.545Z,99065.00
2022-10-22T15:15:22.708Z,99067.28
2022-10-22T15:17:50.440Z,99059.38
2022-10-22T15:20:17.232Z,99065.09
2022-10-22T15:22:45.440Z,99072.34
2022-10-22T15:25:13.586Z,99071.63
2022-10-22T15:27:40.526Z,99077.81
2022-10-22T15:30:08.505Z,99075.22
2022-10-22T15:32:35.433Z,99082.63
2022-10-22T15:35:02.318Z,99083.94
2022-10-22T15:37:28.939Z,99083.75
2022-10-22T15:39:55.664Z,99091.41
2022-10-22T15:42:23.348Z,99096.44
2022-10-22T15:44:59.038Z,99094.66
2022-10-22T15:47:29.553Z,99099.59
2022-10-22T15:49:56.702Z,99100.75
2022-10-22T15:52:23.423Z,99102.88
2022-10-22T15:54:50.206Z,99097.84
2022-10-22T15:57:16.875Z,99105.38
2022-10-22T15:59:43.644Z,99103.84
2022-10-22T16:02:11.611Z,99110.84
2022-10-22T16:04:39.241Z,99111.25
2022-10-22T16:07:06.033Z,99109.47
2022-10-22T16:09:32.809Z,99104.91
2022-10-22T16:11:59.354Z,99110.00
2022-10-22T16:14:26.085Z,99111.25
2022-10-22T16:16:55.551Z,99127.00
2022-10-22T16:19:24.110Z,99123.50
2022-10-22T16:21:52.762Z,99126.56
2022-10-22T16:24:20.113Z,99124.47
2022-10-22T16:26:47.685Z,99116.94
2022-10-22T16:29:15.031Z,99114.38
2022-10-22T16:31:43.736Z,99119.69
2022-10-22T16:34:10.964Z,99120.53
2022-10-22T16:36:38.363Z,99124.41
2022-10-22T16:39:06.416Z,99127.75
2022-10-22T16:41:36.571Z,99133.84
2022-10-22T16:44:06.197Z,99134.03
2022-10-22T16:46:33.682Z,99134.00
2022-10-22T16:49:00.456Z,99127.44
2022-10-22T16:51:28.515Z,99136.03
2022-10-22T16:53:57.258Z,99139.59
2022-10-22T16:56:25.366Z,99147.13
2022-10-22T16:58:54.202Z,99144.41
2022-10-22T17:01:23.267Z,99147.59
2022-10-22T17:03:49.980Z,99149.63
2022-10-22T17:06:16.754Z,99144.81
2022-10-22T17:08:43.392Z,99152.38
2022-10-22T17:11:12.775Z,99158.25
2022-10-22T17:13:43.015Z,99164.00
2022-10-22T17:16:13.338Z,99159.81
2022-10-22T17:18:42.077Z,99166.44
2022-10-22T17:21:11.219Z,99179.06
2022-10-22T17:23:38.408Z,99175.69
2022-10-22T17:26:07.657Z,99174.06
2022-10-22T17:28:38.501Z,99192.09
2022-10-22T17:31:24.003Z,99183.97
2022-10-22T17:33:52.787Z,99195.28
2022-10-22T17:36:20.439Z,99201.66
2022-10-22T17:38:53.288Z,99200.13
2022-10-22T17:41:23.054Z,99206.75
2022-10-22T17:43:50.163Z,99220.28
2022-10-22T17:46:20.301Z,99212.66
2022-10-22T17:48:58.913Z,99224.66
2022-10-22T17:51:27.188Z,99225.00
2022-10-22T17:53:54.338Z,99236.69
2022-10-22T17:56:26.924Z,99227.22
2022-10-22T17:58:54.812Z,99231.94
2022-10-22T18:01:25.222Z,99227.72
2022-10-22T18:03:54.008Z,99242.91
2022-10-22T18:06:21.308Z,99239.06
2022-10-22T18:08:48.287Z,99241.13
2022-10-22T18:11:19.029Z,99241.78
2022-10-22T18:13:48.905Z,99240.78
2022-10-22T18:16:15.589Z,99235.59
2022-10-22T18:18:46.067Z,99228.47
2022-10-22T18:21:13.290Z,99240.13
2022-10-22T18:23:40.400Z,99236.56
2022-10-22T18:26:07.159Z,99244.50
2022-10-22T18:28:34.328Z,99247.69
2022-10-22T18:31:06.617Z,99244.00
2022-10-22T18:33:34.215Z,99246.53
2022-10-22T18:36:09.218Z,99237.75
2022-10-22T18:38:38.314Z,99242.81
2022-10-22T18:41:10.035Z,99242.81
2022-10-22T18:43:46.022Z,99249.22
2022-10-22T18:46:14.168Z,99248.38
2022-10-22T18:48:41.256Z,99243.97
2022-10-22T18:51:08.958Z,99245.34
2022-10-22T18:53:39.439Z,99254.78
2022-10-22T18:56:11.442Z,99251.91
2022-10-22T18:58:39.671Z,99258.50
2022-10-22T19:01:12.865Z,99249.03
2022-10-22T19:03:41.685Z,99256.31
2022-10-22T19:06:08.734Z,99253.63
2022-10-22T19:08:36.409Z,99253.28
2022-10-22T19:11:09.841Z,99246.88
2022-10-22T19:13:36.811Z,99247.69
2022-10-22T19:16:05.630Z,99248.38
2022-10-22T19:18:33.052Z,99250.41
2022-10-22T19:21:04.062Z,99247.00
2022-10-22T19:23:31.224Z,99259.13
2022-10-22T19:26:07.200Z,99255.06
2022-10-22T19:28:33.826Z,99257.47
2022-10-22T19:31:00.958Z,99267.78
2022-10-22T19:33:27.560Z,99264.06
2022-10-22T19:35:54.228Z,99270.66
2022-10-22T19:38:20.963Z,99266.94
2022-10-22T19:40:47.682Z,99270.47
2022-10-22T19:43:22.919Z,99281.75
2022-10-22T19:45:56.107Z,99286.34
2022-10-22T19:48:22.906Z,99273.00
2022-10-22T19:50:49.456Z,99286.19
2022-10-22T19:53:16.029Z,99293.56
2022-10-22T19:55:44.426Z,99296.44
2022-10-22T19:58:12.620Z,99301.19
2022-10-22T20:00:39.425Z,99304.56
2022-10-22T20:03:06.225Z,99306.63
2022-10-22T20:05:32.799Z,99303.06
2022-10-22T20:07:59.434Z,99298.81
2022-10-22T20:10:26.537Z,99306.09
2022-10-22T20:12:53.130Z,99305.22
2022-10-22T20:15:21.732Z,99304.91
2022-10-22T20:17:48.614Z,99306.75
2022-10-22T20:20:15.308Z,99307.94
2022-10-22T20:22:43.285Z,99313.69
2022-10-22T20:25:11.813Z,99313.50
2022-10-22T20:27:38.886Z,99316.03
2022-10-22T20:30:07.008Z,99311.13
2022-10-22T20:32:37.154Z,99315.88
2022-10-22T20:35:04.576Z,99310.31
2022-10-22T20:37:31.196Z,99319.75
2022-10-22T20:39:58.073Z,99322.63
2022-10-22T20:42:24.584Z,99330.88
2022-10-22T20:44:51.187Z,99336.28
2022-10-22T20:47:18.080Z,99345.75
2022-10-22T20:49:44.846Z,99339.66
2022-10-22T20:52:11.404Z,99341.16
2022-10-22T20:54:41.518Z,99327.03
2022-10-22T20:57:08.535Z,99331.91
2022-10-22T20:59:35.249Z,99342.72
2022-10-22T21:02:02.467Z,99337.66
2022-10-22T21:04:29.700Z,99332.94
2022-10-22T21:06:57.435Z,99346.25
2022-10-22T21:09:25.058Z,99336.78
2022-10-22T21:14:23.094Z,99334.91
2022-10-22T21:16:51.193Z,99340.16
2022-10-22T21:19:19.292Z,99343.38
2022-10-22T21:21:46.044Z,99336.44
2022-10-22T21:24:12.731Z,99339.00
2022-10-22T21:26:41.528Z,99344.25
2022-10-22T21:29:09.568Z,99343.38
2022-10-22T21:31:36.866Z,99341.13
2022-10-22T21:34:03.716Z,99343.88
2022-10-22T21:36:30.389Z,99348.78
2022-10-22T21:38:56.999Z,99350.13
2022-10-22T21:41:24.525Z,99343.69
2022-10-22T21:43:51.683Z,99349.25
2022-10-22T21:46:23.732Z,99346.88
2022-10-22T21:48:58.399Z,99345.91
2022-10-22T21:51:25.839Z,99350.41
2022-10-22T21:56:23.306Z,99354.19
2022-10-22T21:58:50.006Z,99354.84
2022-10-22T22:01:17.597Z,99351.66
2022-10-22T22:03:48.044Z,99359.38
2022-10-22T22:06:19.107Z,99351.97
2022-10-22T22:08:48.112Z,99352.28
2022-10-22T22:11:19.466Z,99358.03
2022-10-22T22:13:48.428Z,99349.53
2022-10-22T22:16:25.399Z,99353.81
2022-10-22T22:18:54.971Z,99353.28
2022-10-22T22:21:22.405Z,99352.81
2022-10-22T22:23:50.040Z,99342.13
2022-10-22T22:26:25.214Z,99348.88
2022-10-22T22:28:55.659Z,99343.47
2022-10-22T22:31:25.471Z,99350.41
2022-10-22T22:33:57.806Z,99343.78
2022-10-22T22:36:24.379Z,99342.41
2022-10-22T22:38:54.678Z,99342.56
2022-10-22T22:41:21.244Z,99344.44
2022-10-22T22:43:47.807Z,99347.66
2022-10-22T22:46:14.353Z,99342.22
2022-10-22T22:48:40.831Z,99337.66
2022-10-22T22:51:08.014Z,99341.34
2022-10-22T22:53:35.167Z,99346.47
2022-10-22T22:56:16.424Z,99348.50
2022-10-22T22:58:43.754Z,99349.34
2022-10-22T23:01:23.917Z,99354.09
2022-10-22T23:04:02.637Z,99346.00
2022-10-22T23:06:32.274Z,99341.91
2022-10-22T23:08:59.723Z,99338.16
2022-10-22T23:11:27.872Z,99336.28
2022-10-22T23:14:00.134Z,99333.22
2022-10-22T23:16:29.446Z,99332.16
2022-10-22T23:18:57.433Z,99329.69
2022-10-22T23:21:27.430Z,99328.72
2022-10-22T23:23:59.753Z,99322.63
2022-10-22T23:26:33.822Z,99324.38
2022-10-22T23:29:05.888Z,99329.56
2022-10-22T23:31:32.471Z,99330.16
2022-10-22T23:33:59.183Z,99328.59
2022-10-22T23:36:26.291Z,99335.41
2022-10-22T23:38:52.917Z,99333.78
2022-10-22T23:41:19.435Z,99342.69
2022-10-22T23:43:46.032Z,99345.94
2022-10-22T23:46:13.661Z,99338.81
2022-10-22T23:48:40.623Z,99330.41
2022-10-22T23:51:15.697Z,99336.84
2022-10-22T23:53:44.647Z,99349.34
2022-10-22T23:56:15.368Z,99353.31
2022-10-22T23:58:42.525Z,99348.44
